.
WxDataArchive / Data Records for 2007-12-07
2007-12-06 December 2007 2007-12-08

Data Records for Friday, 07 December 2007

Time	Temp	Chill	HIndex	Humid	Dewpt	 Wind 	HiWind	WindDir	Rain 	Barom 
-----	----	-----	------	-----	-----	------	------	-------	-----	----- 
00:00	24.2	24.2	24.2	76	17.7	0	3	112	0.00	30.105 
00:05	24.2	24.2	24.2	75	17.4	0	2	90	0.00	30.104 
00:10	24.4	24.4	24.4	76	17.9	0	2	112	0.00	30.106 
00:15	24.4	24.4	24.4	76	17.9	0	2	112	0.00	30.108 
00:20	24.5	24.5	24.5	76	18.0	0	2	112	0.00	30.106 
00:25	24.5	24.5	24.5	76	18.0	1	3	112	0.00	30.104 
00:30	24.7	24.7	24.7	76	18.2	1	2	112	0.00	30.104 
00:35	24.7	24.7	24.7	76	18.2	0	2	112	0.00	30.105 
00:40	24.7	24.7	24.7	76	18.2	0	2	112	0.00	30.104 
00:45	24.7	24.7	24.7	76	18.2	0	1	112	0.00	30.104 
00:50	24.7	24.7	24.7	76	18.2	0	1	112	0.00	30.105 
00:55	24.7	24.7	24.7	76	18.2	0	1	112	0.00	30.103 
01:00	24.7	24.7	24.7	76	18.2	0	1	112	0.00	30.106 
01:05	24.7	24.7	24.7	76	18.2	0	1	112	0.00	30.102 
01:10	24.7	24.7	24.7	77	18.5	0	1	112	0.00	30.101 
01:15	24.7	24.7	24.7	77	18.5	0	0	---	0.00	30.099 
01:20	24.7	24.7	24.7	77	18.5	0	1	112	0.00	30.102 
01:25	24.7	24.7	24.7	76	18.2	0	1	112	0.00	30.107 
01:30	24.7	24.7	24.7	77	18.5	0	1	112	0.00	30.099 
01:35	24.8	24.8	24.8	76	18.3	0	1	112	0.00	30.099 
01:40	24.8	24.8	24.8	77	18.6	0	1	112	0.00	30.101 
01:45	24.8	24.8	24.8	77	18.6	0	0	---	0.00	30.103 
01:50	24.8	24.8	24.8	77	18.6	0	1	112	0.00	30.108 
01:55	24.8	24.8	24.8	77	18.6	0	1	112	0.00	30.111 
02:00	24.8	24.8	24.8	78	18.9	0	0	---	0.00	30.117 
02:05	24.8	24.8	24.8	78	18.9	0	0	---	0.00	30.118 
02:10	24.8	24.8	24.8	79	19.2	0	1	112	0.00	30.119 
02:15	24.8	24.8	24.8	79	19.2	0	1	135	0.00	30.116 
02:20	24.8	24.8	24.8	80	19.5	1	3	135	0.00	30.109 
02:25	24.8	24.8	24.8	81	19.8	0	2	270	0.00	30.115 
02:30	24.8	24.8	24.8	82	20.1	0	4	270	0.00	30.117 
02:35	24.8	24.8	24.8	83	20.4	1	2	248	0.00	30.117 
02:40	24.7	24.7	24.7	84	20.6	0	1	248	0.00	30.113 
02:45	24.7	24.7	24.7	84	20.6	0	1	248	0.00	30.110 
02:50	24.7	24.7	24.7	85	20.8	0	2	248	0.00	30.109 
02:55	24.7	24.7	24.7	85	20.8	1	3	112	0.00	30.104 
03:00	24.7	24.7	24.7	86	21.1	0	2	112	0.00	30.103 
03:05	24.7	24.7	24.7	86	21.1	1	3	112	0.00	30.105 
03:10	24.7	24.7	24.7	87	21.4	0	2	112	0.00	30.105 
03:15	24.7	24.7	24.7	87	21.4	0	2	112	0.00	30.098 
03:20	24.7	24.7	24.7	87	21.4	0	2	112	0.00	30.100 
03:25	24.7	24.7	24.7	88	21.7	0	2	112	0.00	30.093 
03:30	24.7	24.7	24.7	88	21.7	0	1	112	0.00	30.090 
03:35	24.7	24.7	24.7	88	21.7	0	2	112	0.00	30.089 
03:40	24.7	24.7	24.7	89	21.9	0	2	112	0.00	30.090 
03:45	24.7	24.7	24.7	89	21.9	0	1	112	0.00	30.084 
03:50	24.8	24.8	24.8	89	22.0	0	1	135	0.00	30.083 
03:55	24.8	24.8	24.8	89	22.0	0	2	135	0.00	30.079 
04:00	24.8	24.8	24.8	89	22.0	0	1	135	0.00	30.084 
04:05	24.8	24.8	24.8	90	22.3	0	2	135	0.00	30.080 
04:10	25.0	25.0	25.0	90	22.5	0	1	135	0.00	30.080 
04:15	25.0	25.0	25.0	90	22.5	0	2	135	0.00	30.079 
04:20	25.1	25.1	25.1	90	22.6	0	2	135	0.00	30.076 
04:25	25.1	25.1	25.1	90	22.6	0	2	112	0.00	30.072 
04:30	25.1	25.1	25.1	90	22.6	0	1	112	0.00	30.069 
04:35	25.1	25.1	25.1	90	22.6	0	2	112	0.00	30.060 
04:40	25.1	25.1	25.1	90	22.6	0	1	112	0.00	30.059 
04:45	25.1	25.1	25.1	91	22.9	0	1	112	0.00	30.060 
04:50	25.0	25.0	25.0	91	22.8	0	1	112	0.00	30.059 
04:55	25.0	25.0	25.0	91	22.8	0	1	112	0.00	30.058 
05:00	25.0	25.0	25.0	91	22.8	0	1	112	0.00	30.055 
05:05	25.0	25.0	25.0	91	22.8	0	1	112	0.00	30.053 
05:10	25.0	25.0	25.0	91	22.8	0	1	112	0.00	30.056 
05:15	25.1	25.1	25.1	91	22.9	0	1	112	0.00	30.049 
05:20	25.1	25.1	25.1	91	22.9	0	1	112	0.00	30.049 
05:25	25.1	25.1	25.1	91	22.9	0	1	112	0.00	30.051 
05:30	25.3	25.3	25.3	92	23.3	0	1	112	0.00	30.052 
05:35	25.3	25.3	25.3	92	23.3	0	1	112	0.00	30.054 
05:40	25.3	25.3	25.3	92	23.3	0	1	112	0.00	30.051 
05:45	25.4	25.4	25.4	92	23.4	0	1	112	0.00	30.048 
05:50	25.4	25.4	25.4	92	23.4	0	1	112	0.00	30.045 
05:55	25.6	25.6	25.6	92	23.6	0	1	112	0.00	30.044 
06:00	25.6	25.6	25.6	92	23.6	0	1	112	0.00	30.044 
06:05	25.7	25.7	25.7	92	23.7	0	0	---	0.00	30.046 
06:10	25.7	25.7	25.7	92	23.7	0	1	112	0.00	30.046 
06:15	25.8	25.8	25.8	92	23.8	0	0	---	0.00	30.048 
06:20	26.0	26.0	26.0	92	24.0	0	0	---	0.00	30.049 
06:25	26.0	26.0	26.0	92	24.0	0	1	112	0.00	30.048 
06:30	26.1	26.1	26.1	92	24.1	0	1	112	0.00	30.051 
06:35	26.1	26.1	26.1	92	24.1	0	1	112	0.00	30.055 
06:40	26.3	26.3	26.3	92	24.3	0	1	112	0.00	30.059 
06:45	26.3	26.3	26.3	92	24.3	0	1	112	0.00	30.057 
06:50	26.4	26.4	26.4	92	24.4	0	1	112	0.00	30.059 
06:55	26.4	26.4	26.4	92	24.4	0	1	135	0.00	30.060 
07:00	26.6	26.6	26.6	92	24.6	0	1	135	0.00	30.058 
07:05	26.6	26.6	26.6	92	24.6	0	1	135	0.00	30.054 
07:10	26.6	26.6	26.6	92	24.6	0	2	135	0.00	30.051 
07:15	26.7	26.7	26.7	92	24.7	0	2	158	0.00	30.055 
07:20	26.7	26.7	26.7	92	24.7	0	0	---	0.00	30.057 
07:25	26.7	26.7	26.7	92	24.7	0	0	---	0.00	30.057 
07:30	26.9	26.9	26.9	92	24.9	0	1	158	0.00	30.059 
07:35	26.9	26.9	26.9	92	24.9	0	1	158	0.00	30.060 
07:40	27.0	27.0	27.0	92	25.0	0	1	158	0.00	30.061 
07:45	27.0	27.0	27.0	92	25.0	0	2	158	0.00	30.065 
07:50	27.2	27.2	27.2	92	25.2	0	1	158	0.00	30.065 
07:55	27.3	27.3	27.3	92	25.3	0	2	180	0.00	30.070 
08:00	27.5	27.5	27.5	92	25.5	0	1	180	0.00	30.066 
08:05	27.5	27.5	27.5	92	25.5	0	1	180	0.00	30.067 
08:10	27.6	27.6	27.6	92	25.6	0	1	180	0.00	30.071 
08:15	27.6	27.6	27.6	91	25.3	0	1	180	0.00	30.072 
08:20	27.8	27.8	27.8	91	25.5	0	2	180	0.00	30.074 
08:25	27.9	27.9	27.9	91	25.6	0	1	180	0.00	30.076 
08:30	28.1	28.1	28.1	91	25.8	0	2	202	0.00	30.082 
08:35	28.2	28.2	28.2	91	25.9	1	3	248	0.00	30.080 
08:40	28.4	28.4	28.4	91	26.1	0	2	248	0.00	30.079 
08:45	28.5	28.5	28.5	91	26.2	0	1	248	0.00	30.079 
08:50	28.7	28.7	28.7	91	26.4	0	2	248	0.00	30.082 
08:55	28.8	28.8	28.8	90	26.2	1	2	248	0.00	30.080 
09:00	29.0	29.0	29.0	90	26.4	1	3	248	0.00	30.080 
09:05	29.1	29.1	29.1	90	26.5	1	4	248	0.00	30.083 
09:10	29.3	29.3	29.3	89	26.5	1	3	248	0.00	30.084 
09:15	29.5	29.5	29.5	88	26.4	1	4	248	0.00	30.088 
09:20	29.7	29.7	29.7	88	26.6	1	5	248	0.00	30.090 
09:25	29.8	29.8	29.8	88	26.7	1	6	248	0.00	30.090 
09:30	30.0	30.0	30.0	87	26.6	1	4	248	0.00	30.095 
09:35	30.0	30.0	30.0	86	26.3	1	4	248	0.00	30.095 
09:40	30.1	30.1	30.1	86	26.4	1	4	248	0.00	30.096 
09:45	30.3	30.3	30.3	85	26.3	1	3	248	0.00	30.098 
09:50	30.3	30.3	30.3	85	26.3	2	6	248	0.00	30.102 
09:55	30.3	30.3	30.3	85	26.3	1	5	270	0.00	30.104 
10:00	30.3	30.3	30.3	84	26.1	1	4	248	0.00	30.102 
10:05	30.3	30.3	30.3	84	26.1	2	5	248	0.00	30.101 
10:10	30.3	30.3	30.3	84	26.1	2	6	248	0.00	30.102 
10:15	30.3	30.3	30.3	84	26.1	1	5	225	0.00	30.102 
10:20	30.4	30.4	30.4	84	26.2	1	3	248	0.00	30.102 
10:25	30.4	30.4	30.4	84	26.2	1	3	248	0.00	30.102 
10:30	30.4	30.4	30.4	84	26.2	1	3	270	0.00	30.101 
10:35	30.4	30.4	30.4	84	26.2	1	4	248	0.00	30.104 
10:40	30.4	30.4	30.4	84	26.2	2	6	248	0.00	30.112 
10:45	30.4	30.4	30.4	84	26.2	1	4	248	0.00	30.110 
10:50	30.6	30.6	30.6	84	26.4	1	6	248	0.00	30.104 
10:55	30.6	30.6	30.6	84	26.4	2	6	248	0.00	30.116 
11:00	30.7	30.7	30.7	84	26.4	2	5	248	0.00	30.118 
11:05	30.7	30.7	30.7	84	26.4	2	7	248	0.00	30.118 
11:10	30.7	30.7	30.7	84	26.4	1	3	225	0.00	30.118 
11:15	30.7	30.7	30.7	83	26.2	1	3	225	0.00	30.119 
11:20	30.7	30.7	30.7	83	26.2	2	4	248	0.00	30.118 
11:25	30.9	30.9	30.9	83	26.4	1	3	248	0.00	30.118 
11:30	30.9	30.9	30.9	83	26.4	1	2	248	0.00	30.117 
11:35	31.0	31.0	31.0	83	26.5	0	2	248	0.00	30.118 
11:40	31.2	31.2	31.2	83	26.6	0	2	248	0.00	30.118 
11:45	31.2	31.2	31.2	82	26.4	1	5	248	0.00	30.112 
11:50	31.0	31.0	31.0	82	26.2	1	4	248	0.00	30.113 
11:55	31.0	31.0	31.0	82	26.2	1	5	248	0.00	30.109 
12:00	31.0	31.0	31.0	82	26.2	1	4	248	0.00	30.104 
12:05	31.2	31.2	31.2	82	26.4	1	5	248	0.00	30.101 
12:10	31.3	31.3	31.3	82	26.5	0	3	248	0.00	30.105 
12:15	31.5	31.5	31.5	81	26.4	0	2	248	0.00	30.105 
12:20	31.5	31.5	31.5	81	26.4	0	4	248	0.00	30.104 
12:25	31.5	31.5	31.5	81	26.4	1	3	248	0.00	30.101 
12:30	31.5	31.5	31.5	80	26.1	2	6	248	0.00	30.100 
12:35	31.5	31.5	31.5	81	26.4	2	5	248	0.00	30.102 
12:40	31.6	31.6	31.6	80	26.2	2	6	248	0.00	30.100 
12:45	31.6	31.6	31.6	80	26.2	2	4	248	0.00	30.098 
12:50	31.6	31.6	31.6	80	26.2	2	6	248	0.00	30.099 
12:55	31.5	31.5	31.5	80	26.1	2	6	248	0.00	30.098 
13:00	31.5	31.5	31.5	80	26.1	2	7	248	0.00	30.093 
13:05	31.5	31.5	31.5	80	26.1	2	6	248	0.00	30.092 
13:10	31.5	31.5	31.5	80	26.1	1	3	248	0.00	30.092 
13:15	31.6	31.6	31.6	79	25.8	1	4	248	0.00	30.088 
13:20	31.6	31.6	31.6	79	25.8	2	7	248	0.00	30.085 
13:25	31.6	31.6	31.6	79	25.8	1	4	248	0.00	30.085 
13:30	31.6	31.6	31.6	78	25.5	1	4	248	0.00	30.086 
13:35	31.6	31.6	31.6	78	25.5	2	7	248	0.00	30.090 
13:40	31.6	31.6	31.6	78	25.5	2	5	248	0.00	30.086 
13:45	31.8	31.8	31.8	79	26.0	2	5	248	0.00	30.093 
13:50	31.8	31.8	31.8	78	25.7	2	10	248	0.00	30.093 
13:55	31.9	31.9	31.9	78	25.8	1	3	248	0.00	30.093 
14:00	31.9	31.9	31.9	78	25.8	1	4	248	0.00	30.095 
14:05	32.1	32.1	32.1	77	25.7	2	6	248	0.00	30.095 
14:10	32.1	32.1	32.1	77	25.7	2	5	248	0.00	30.087 
14:15	32.1	32.1	32.1	77	25.7	1	4	248	0.00	30.086 
14:20	32.1	32.1	32.1	78	26.0	1	3	248	0.00	30.089 
14:25	32.2	32.2	32.2	78	26.1	1	4	248	0.00	30.089 
14:30	32.1	32.1	32.1	78	26.0	1	2	248	0.00	30.086 
14:35	32.1	32.1	32.1	78	26.0	1	4	248	0.00	30.091 
14:40	32.1	32.1	32.1	78	26.0	1	4	248	0.00	30.094 
14:45	32.1	32.1	32.1	78	26.0	2	4	248	0.00	30.098 
14:50	32.1	32.1	32.1	78	26.0	1	4	248	0.00	30.100 
14:55	32.1	32.1	32.1	78	26.0	2	4	248	0.00	30.102 
15:00	31.9	31.9	31.9	78	25.8	2	5	248	0.00	30.106 
15:05	32.1	32.1	32.1	78	26.0	2	7	248	0.00	30.101 
15:10	31.9	31.9	31.9	78	25.8	2	7	248	0.00	30.101 
15:15	31.9	31.9	31.9	77	25.5	3	10	270	0.00	30.100 
15:20	31.9	31.9	31.9	77	25.5	2	7	270	0.00	30.100 
15:25	31.9	31.9	31.9	78	25.8	1	4	248	0.00	30.100 
15:30	31.9	31.9	31.9	78	25.8	2	5	248	0.00	30.099 
15:35	31.9	31.9	31.9	78	25.8	3	7	248	0.00	30.100 
15:40	31.9	31.9	31.9	78	25.8	1	6	248	0.00	30.102 
15:45	31.9	31.9	31.9	78	25.8	2	6	248	0.00	30.100 
15:50	31.8	31.8	31.8	78	25.7	1	5	248	0.00	30.100 
15:55	31.9	31.9	31.9	79	26.1	1	3	248	0.00	30.099 
16:00	31.9	31.9	31.9	79	26.1	1	5	248	0.00	30.099 
16:05	31.9	31.9	31.9	79	26.1	1	3	248	0.00	30.099 
16:10	31.9	31.9	31.9	79	26.1	1	4	248	0.00	30.098 
16:15	31.9	31.9	31.9	79	26.1	0	2	248	0.00	30.099 
16:20	31.9	31.9	31.9	79	26.1	0	2	248	0.00	30.100 
16:25	31.9	31.9	31.9	79	26.1	0	1	248	0.00	30.102 
16:30	31.9	31.9	31.9	79	26.1	0	2	248	0.00	30.106 
16:35	31.9	31.9	31.9	79	26.1	1	5	248	0.00	30.107 
16:40	31.8	31.8	31.8	79	26.0	2	5	248	0.00	30.108 
16:45	31.8	31.8	31.8	79	26.0	1	3	248	0.00	30.107 
16:50	31.8	31.8	31.8	80	26.3	1	4	248	0.00	30.110 
16:55	31.6	31.6	31.6	80	26.2	1	4	248	0.00	30.112 
17:00	31.6	31.6	31.6	80	26.2	0	2	248	0.00	30.108 
17:05	31.6	31.6	31.6	80	26.2	0	1	248	0.00	30.110 
17:10	31.6	31.6	31.6	80	26.2	1	3	248	0.00	30.116 
17:15	31.5	31.5	31.5	81	26.4	0	2	248	0.00	30.116 
17:20	31.5	31.5	31.5	81	26.4	0	1	248	0.00	30.116 
17:25	31.5	31.5	31.5	81	26.4	0	2	248	0.00	30.119 
17:30	31.6	31.6	31.6	81	26.5	2	7	248	0.00	30.117 
17:35	31.6	31.6	31.6	81	26.5	1	2	248	0.00	30.116 
17:40	31.6	31.6	31.6	80	26.2	1	4	248	0.00	30.122 
17:45	31.6	31.6	31.6	81	26.5	0	2	248	0.00	30.129 
17:50	31.6	31.6	31.6	80	26.2	1	5	248	0.00	30.127 
17:55	31.8	31.8	31.8	80	26.3	0	3	248	0.00	30.126 
18:00	31.6	31.6	31.6	81	26.5	0	1	248	0.00	30.129 
18:05	31.6	31.6	31.6	81	26.5	0	2	248	0.00	30.128 
18:10	31.6	31.6	31.6	81	26.5	0	2	248	0.00	30.129 
18:15	31.6	31.6	31.6	81	26.5	1	4	248	0.00	30.130 
18:20	31.6	31.6	31.6	81	26.5	1	3	248	0.00	30.130 
18:25	31.6	31.6	31.6	81	26.5	1	3	248	0.00	30.131 
18:30	31.6	31.6	31.6	81	26.5	0	3	248	0.00	30.141 
18:35	31.6	31.6	31.6	81	26.5	0	2	248	0.00	30.138 
18:40	31.6	31.6	31.6	81	26.5	0	1	248	0.00	30.132 
18:45	31.6	31.6	31.6	81	26.5	0	2	248	0.00	30.137 
18:50	31.5	31.5	31.5	81	26.4	0	1	248	0.00	30.140 
18:55	31.5	31.5	31.5	82	26.7	0	2	248	0.00	30.142 
19:00	31.5	31.5	31.5	81	26.4	0	3	248	0.00	30.143 
19:05	31.5	31.5	31.5	82	26.7	0	1	248	0.00	30.145 
19:10	31.5	31.5	31.5	82	26.7	0	1	248	0.00	30.144 
19:15	31.5	31.5	31.5	82	26.7	1	5	248	0.00	30.147 
19:20	31.5	31.5	31.5	82	26.7	0	2	248	0.00	30.152 
19:25	31.5	31.5	31.5	82	26.7	0	2	248	0.00	30.158 
19:30	31.5	31.5	31.5	82	26.7	0	1	248	0.00	30.157 
19:35	31.3	31.3	31.3	82	26.5	2	5	248	0.00	30.160 
19:40	31.5	31.5	31.5	82	26.7	1	5	248	0.00	30.155 
19:45	31.3	31.3	31.3	82	26.5	1	3	248	0.00	30.157 
19:50	31.3	31.3	31.3	82	26.5	0	3	248	0.00	30.159 
19:55	31.3	31.3	31.3	82	26.5	0	3	248	0.00	30.156 
20:00	31.3	31.3	31.3	82	26.5	1	3	248	0.00	30.151 
20:05	31.3	31.3	31.3	83	26.7	1	4	248	0.00	30.156 
20:10	31.3	31.3	31.3	83	26.7	1	3	248	0.00	30.157 
20:15	31.3	31.3	31.3	83	26.7	0	2	270	0.00	30.158 
20:20	31.3	31.3	31.3	83	26.7	0	2	270	0.00	30.160 
20:25	31.3	31.3	31.3	83	26.7	0	1	270	0.00	30.156 
20:30	31.3	31.3	31.3	83	26.7	0	1	270	0.00	30.157 
20:35	31.3	31.3	31.3	83	26.7	0	0	---	0.00	30.158 
20:40	31.3	31.3	31.3	83	26.7	0	1	270	0.00	30.154 
20:45	31.3	31.3	31.3	83	26.7	0	1	270	0.00	30.147 
20:50	31.3	31.3	31.3	84	27.0	0	2	270	0.00	30.151 
20:55	31.3	31.3	31.3	83	26.7	1	3	270	0.00	30.155 
21:00	31.3	31.3	31.3	83	26.7	0	3	270	0.00	30.157 
21:05	31.3	31.3	31.3	83	26.7	0	2	270	0.00	30.147 
21:10	31.3	31.3	31.3	83	26.7	0	1	270	0.00	30.147 
21:15	31.3	31.3	31.3	83	26.7	1	4	248	0.00	30.147 
21:20	31.3	31.3	31.3	83	26.7	0	3	248	0.00	30.146 
21:25	31.2	31.2	31.2	83	26.6	0	1	248	0.00	30.148 
21:30	31.2	31.2	31.2	83	26.6	0	3	248	0.00	30.152 
21:35	31.2	31.2	31.2	83	26.6	0	3	248	0.00	30.158 
21:40	31.2	31.2	31.2	83	26.6	1	4	248	0.00	30.153 
21:45	31.2	31.2	31.2	83	26.6	0	3	248	0.00	30.152 
21:50	31.2	31.2	31.2	83	26.6	1	3	248	0.00	30.156 
21:55	31.2	31.2	31.2	83	26.6	1	4	248	0.00	30.154 
22:00	31.2	31.2	31.2	83	26.6	0	2	248	0.00	30.157 
22:05	31.2	31.2	31.2	84	26.9	0	1	248	0.00	30.153 
22:10	31.2	31.2	31.2	84	26.9	0	1	248	0.00	30.153 
22:15	31.0	31.0	31.0	84	26.7	0	1	248	0.00	30.155 
22:20	31.2	31.2	31.2	84	26.9	0	3	248	0.00	30.158 
22:25	31.2	31.2	31.2	84	26.9	1	2	248	0.00	30.158 
22:30	31.2	31.2	31.2	84	26.9	1	4	248	0.00	30.160 
22:35	31.2	31.2	31.2	84	26.9	0	3	248	0.00	30.160 
22:40	31.2	31.2	31.2	84	26.9	1	4	248	0.00	30.157 
22:45	31.2	31.2	31.2	84	26.9	1	4	248	0.00	30.157 
22:50	31.2	31.2	31.2	84	26.9	1	4	248	0.00	30.157 
22:55	31.2	31.2	31.2	84	26.9	1	4	248	0.00	30.155 
23:00	31.2	31.2	31.2	84	26.9	0	2	248	0.00	30.156 
23:05	31.0	31.0	31.0	84	26.7	0	3	248	0.00	30.157 
23:10	31.0	31.0	31.0	84	26.7	1	4	248	0.00	30.158 
23:15	31.0	31.0	31.0	84	26.7	0	2	248	0.00	30.165 
23:20	31.0	31.0	31.0	84	26.7	1	4	248	0.00	30.169 
23:25	31.0	31.0	31.0	84	26.7	0	3	248	0.00	30.170 
23:30	31.0	31.0	31.0	84	26.7	1	3	248	0.00	30.171 
23:35	30.9	30.9	30.9	84	26.6	1	4	248	0.00	30.172 
23:40	31.0	31.0	31.0	84	26.7	1	4	248	0.00	30.172 
23:45	30.9	30.9	30.9	84	26.6	1	2	248	0.00	30.169 
23:50	31.0	31.0	31.0	84	26.7	0	1	248	0.00	30.171 
23:55	30.9	30.9	30.9	85	26.9	0	3	248	0.00	30.171 

CoCoRaHS
IN-AL-39
A2 Web Hosting
Creative Commons License
GoDaddy
Look for:

loaded 2017-12-11 06:45:50 • last modified 2010-11-18 10:43:29
Privacy PolicyDisclaimer
• wx.awcolley.com is powered by PmWiki v.2002016 •
• all content (unless otherwise noted) © 2017 A W Colley